Terminal Aerodrome Forecast
Issued by NWS Wichita, KS

Home | Current Version | Previous Version | Text Only | Print | Product List | Glossary Off
Versions: 1 2 3 4 5 6 7 8 9 10 11 12 13 14 15 16 17 18 19 20

395
FTUS43 KICT 241736
TAFICT
TAF
KICT 241736Z 2418/2518 19010KT P6SM FEW120 SCT250
     FM242300 12007KT P6SM VCTS SCT050CB BKN090
     FM250300 08008KT P6SM VCTS SCT050CB OVC080
     FM251600 06007KT P6SM BKN150=

USA.gov is the U.S. government's official web portal to all federal, state and local government web resources and services.